sensor_id;sensor_type;location;lat;lon;timestamp;P1;durP1;ratioP1;P2;durP2;ratioP2
70342;SDS011;57767;42.068;24.752;2023-10-08T00:01:02;7.05;;;3.67;;
70342;SDS011;57767;42.068;24.752;2023-10-08T00:02:05;7.47;;;3.40;;
70342;SDS011;57767;42.068;24.752;2023-10-08T00:03:07;6.82;;;3.70;;
70342;SDS011;57767;42.068;24.752;2023-10-08T00:04:10;7.25;;;3.50;;
70342;SDS011;57767;42.068;24.752;2023-10-08T00:05:12;6.50;;;3.28;;
70342;SDS011;57767;42.068;24.752;2023-10-08T00:06:18;6.10;;;3.33;;
70342;SDS011;57767;42.068;24.752;2023-10-08T00:07:23;6.15;;;3.80;;
70342;SDS011;57767;42.068;24.752;2023-10-08T00:08:25;6.05;;;3.00;;
70342;SDS011;57767;42.068;24.752;2023-10-08T00:09:27;5.70;;;3.53;;
70342;SDS011;57767;42.068;24.752;2023-10-08T00:10:39;5.65;;;3.38;;
70342;SDS011;57767;42.068;24.752;2023-10-08T00:11:42;5.35;;;3.63;;
70342;SDS011;57767;42.068;24.752;2023-10-08T00:12:44;7.35;;;4.15;;
70342;SDS011;57767;42.068;24.752;2023-10-08T00:13:48;7.15;;;3.65;;
70342;SDS011;57767;42.068;24.752;2023-10-08T00:14:51;6.07;;;3.63;;
70342;SDS011;57767;42.068;24.752;2023-10-08T00:15:58;9.48;;;3.88;;
70342;SDS011;57767;42.068;24.752;2023-10-08T00:16:59;7.53;;;3.85;;
70342;SDS011;57767;42.068;24.752;2023-10-08T00:18:02;9.35;;;3.97;;
70342;SDS011;57767;42.068;24.752;2023-10-08T00:19:07;11.93;;;4.43;;
70342;SDS011;57767;42.068;24.752;2023-10-08T00:20:10;9.88;;;4.47;;
70342;SDS011;57767;42.068;24.752;2023-10-08T00:21:18;8.60;;;4.90;;
70342;SDS011;57767;42.068;24.752;2023-10-08T00:22:21;10.85;;;4.93;;
70342;SDS011;57767;42.068;24.752;2023-10-08T00:23:26;9.48;;;4.88;;
70342;SDS011;57767;42.068;24.752;2023-10-08T00:24:27;13.40;;;4.80;;
70342;SDS011;57767;42.068;24.752;2023-10-08T00:25:29;10.02;;;5.00;;
70342;SDS011;57767;42.068;24.752;2023-10-08T00:26:34;8.10;;;4.30;;
70342;SDS011;57767;42.068;24.752;2023-10-08T00:27:41;10.38;;;4.70;;
70342;SDS011;57767;42.068;24.752;2023-10-08T00:28:43;6.88;;;4.45;;
70342;SDS011;57767;42.068;24.752;2023-10-08T00:29:44;6.95;;;3.95;;
70342;SDS011;57767;42.068;24.752;2023-10-08T00:30:46;6.63;;;3.78;;
70342;SDS011;57767;42.068;24.752;2023-10-08T00:31:49;11.05;;;4.50;;
70342;SDS011;57767;42.068;24.752;2023-10-08T00:32:51;7.57;;;3.90;;
70342;SDS011;57767;42.068;24.752;2023-10-08T00:33:53;9.60;;;4.25;;
70342;SDS011;57767;42.068;24.752;2023-10-08T00:34:54;7.30;;;4.15;;
70342;SDS011;57767;42.068;24.752;2023-10-08T00:35:56;7.18;;;4.07;;
70342;SDS011;57767;42.068;24.752;2023-10-08T00:36:57;7.20;;;4.35;;
70342;SDS011;57767;42.068;24.752;2023-10-08T00:37:59;9.70;;;4.35;;
70342;SDS011;57767;42.068;24.752;2023-10-08T00:39:03;11.35;;;4.30;;
70342;SDS011;57767;42.068;24.752;2023-10-08T00:40:09;7.28;;;3.85;;
70342;SDS011;57767;42.068;24.752;2023-10-08T00:41:14;10.85;;;4.38;;
70342;SDS011;57767;42.068;24.752;2023-10-08T00:42:16;7.38;;;4.30;;
70342;SDS011;57767;42.068;24.752;2023-10-08T00:43:34;8.65;;;4.63;;
70342;SDS011;57767;42.068;24.752;2023-10-08T00:44:37;8.27;;;4.28;;
70342;SDS011;57767;42.068;24.752;2023-10-08T00:45:53;10.43;;;4.53;;
70342;SDS011;57767;42.068;24.752;2023-10-08T00:46:57;8.73;;;4.47;;
70342;SDS011;57767;42.068;24.752;2023-10-08T00:48:03;9.32;;;4.55;;
70342;SDS011;57767;42.068;24.752;2023-10-08T00:49:08;12.68;;;4.57;;
70342;SDS011;57767;42.068;24.752;2023-10-08T00:50:39;7.03;;;4.05;;
70342;SDS011;57767;42.068;24.752;2023-10-08T00:51:44;12.65;;;4.90;;
70342;SDS011;57767;42.068;24.752;2023-10-08T00:53:00;10.45;;;5.07;;
70342;SDS011;57767;42.068;24.752;2023-10-08T00:54:03;8.95;;;4.20;;
70342;SDS011;57767;42.068;24.752;2023-10-08T00:55:08;7.28;;;4.20;;
70342;SDS011;57767;42.068;24.752;2023-10-08T00:56:10;6.88;;;4.57;;
70342;SDS011;57767;42.068;24.752;2023-10-08T00:57:17;7.30;;;4.85;;
70342;SDS011;57767;42.068;24.752;2023-10-08T00:58:23;12.05;;;5.63;;
70342;SDS011;57767;42.068;24.752;2023-10-08T00:59:28;12.32;;;5.82;;
70342;SDS011;57767;42.068;24.752;2023-10-08T01:00:35;12.48;;;5.25;;
70342;SDS011;57767;42.068;24.752;2023-10-08T01:01:43;11.23;;;5.55;;
70342;SDS011;57767;42.068;24.752;2023-10-08T01:02:52;13.80;;;5.90;;
70342;SDS011;57767;42.068;24.752;2023-10-08T01:04:03;12.15;;;6.82;;
70342;SDS011;57767;42.068;24.752;2023-10-08T01:05:16;9.73;;;6.13;;
70342;SDS011;57767;42.068;24.752;2023-10-08T01:06:26;12.77;;;5.95;;
70342;SDS011;57767;42.068;24.752;2023-10-08T01:07:31;16.10;;;6.70;;
70342;SDS011;57767;42.068;24.752;2023-10-08T01:08:34;14.65;;;6.43;;
70342;SDS011;57767;42.068;24.752;2023-10-08T01:09:39;12.38;;;6.63;;
70342;SDS011;57767;42.068;24.752;2023-10-08T01:10:44;14.00;;;6.60;;
70342;SDS011;57767;42.068;24.752;2023-10-08T01:12:06;11.75;;;6.63;;
70342;SDS011;57767;42.068;24.752;2023-10-08T01:13:18;14.63;;;6.00;;
70342;SDS011;57767;42.068;24.752;2023-10-08T01:14:22;13.05;;;5.60;;
70342;SDS011;57767;42.068;24.752;2023-10-08T01:15:33;15.30;;;7.18;;
70342;SDS011;57767;42.068;24.752;2023-10-08T01:16:37;13.75;;;5.65;;
70342;SDS011;57767;42.068;24.752;2023-10-08T01:17:40;12.82;;;5.90;;
70342;SDS011;57767;42.068;24.752;2023-10-08T01:18:50;11.75;;;5.53;;
70342;SDS011;57767;42.068;24.752;2023-10-08T01:19:55;13.23;;;6.32;;
70342;SDS011;57767;42.068;24.752;2023-10-08T01:21:22;10.88;;;5.75;;
70342;SDS011;57767;42.068;24.752;2023-10-08T01:22:37;15.52;;;6.10;;
70342;SDS011;57767;42.068;24.752;2023-10-08T01:23:40;11.77;;;5.75;;
70342;SDS011;57767;42.068;24.752;2023-10-08T01:24:42;9.35;;;5.30;;
70342;SDS011;57767;42.068;24.752;2023-10-08T01:25:44;8.93;;;5.10;;
70342;SDS011;57767;42.068;24.752;2023-10-08T01:26:52;8.98;;;5.32;;
70342;SDS011;57767;42.068;24.752;2023-10-08T01:27:57;11.98;;;5.30;;
70342;SDS011;57767;42.068;24.752;2023-10-08T01:29:21;12.05;;;5.28;;
70342;SDS011;57767;42.068;24.752;2023-10-08T01:30:26;10.95;;;5.28;;
70342;SDS011;57767;42.068;24.752;2023-10-08T01:31:35;12.02;;;4.85;;
70342;SDS011;57767;42.068;24.752;2023-10-08T01:32:38;10.73;;;5.07;;
70342;SDS011;57767;42.068;24.752;2023-10-08T01:33:40;10.13;;;4.93;;
70342;SDS011;57767;42.068;24.752;2023-10-08T01:34:48;8.30;;;4.63;;
70342;SDS011;57767;42.068;24.752;2023-10-08T01:35:50;10.70;;;4.55;;
70342;SDS011;57767;42.068;24.752;2023-10-08T01:36:52;7.35;;;4.35;;
70342;SDS011;57767;42.068;24.752;2023-10-08T01:37:54;9.05;;;4.78;;
70342;SDS011;57767;42.068;24.752;2023-10-08T01:38:58;8.13;;;4.35;;
70342;SDS011;57767;42.068;24.752;2023-10-08T01:39:59;10.43;;;4.90;;
70342;SDS011;57767;42.068;24.752;2023-10-08T01:41:04;10.35;;;4.50;;
70342;SDS011;57767;42.068;24.752;2023-10-08T01:42:20;7.20;;;3.75;;
70342;SDS011;57767;42.068;24.752;2023-10-08T01:43:24;7.07;;;4.03;;
70342;SDS011;57767;42.068;24.752;2023-10-08T01:44:28;9.05;;;4.38;;
70342;SDS011;57767;42.068;24.752;2023-10-08T01:45:35;8.27;;;3.92;;
70342;SDS011;57767;42.068;24.752;2023-10-08T01:46:37;8.38;;;3.53;;
70342;SDS011;57767;42.068;24.752;2023-10-08T01:47:42;5.25;;;3.15;;
70342;SDS011;57767;42.068;24.752;2023-10-08T01:48:44;4.45;;;3.25;;
70342;SDS011;57767;42.068;24.752;2023-10-08T01:49:47;7.50;;;3.70;;
70342;SDS011;57767;42.068;24.752;2023-10-08T01:50:48;6.95;;;3.10;;
70342;SDS011;57767;42.068;24.752;2023-10-08T01:51:51;5.07;;;3.28;;
70342;SDS011;57767;42.068;24.752;2023-10-08T01:52:55;6.28;;;3.38;;
70342;SDS011;57767;42.068;24.752;2023-10-08T01:53:57;7.20;;;3.50;;
70342;SDS011;57767;42.068;24.752;2023-10-08T01:55:00;6.30;;;3.13;;
70342;SDS011;57767;42.068;24.752;2023-10-08T01:56:01;6.88;;;3.20;;
70342;SDS011;57767;42.068;24.752;2023-10-08T01:57:05;8.60;;;3.55;;
70342;SDS011;57767;42.068;24.752;2023-10-08T01:58:11;8.00;;;3.75;;
70342;SDS011;57767;42.068;24.752;2023-10-08T01:59:14;5.97;;;3.10;;
70342;SDS011;57767;42.068;24.752;2023-10-08T02:00:17;4.70;;;2.97;;
70342;SDS011;57767;42.068;24.752;2023-10-08T02:01:24;6.45;;;3.20;;
70342;SDS011;57767;42.068;24.752;2023-10-08T02:02:25;5.63;;;3.47;;
70342;SDS011;57767;42.068;24.752;2023-10-08T02:03:27;5.38;;;3.30;;
70342;SDS011;57767;42.068;24.752;2023-10-08T02:04:29;6.07;;;3.20;;
70342;SDS011;57767;42.068;24.752;2023-10-08T02:05:32;6.10;;;3.28;;
70342;SDS011;57767;42.068;24.752;2023-10-08T02:06:35;6.03;;;3.20;;
70342;SDS011;57767;42.068;24.752;2023-10-08T02:07:37;7.20;;;3.17;;
70342;SDS011;57767;42.068;24.752;2023-10-08T02:08:39;6.85;;;3.28;;
70342;SDS011;57767;42.068;24.752;2023-10-08T02:09:41;7.97;;;4.10;;
70342;SDS011;57767;42.068;24.752;2023-10-08T02:10:43;7.43;;;3.90;;
70342;SDS011;57767;42.068;24.752;2023-10-08T02:11:48;10.07;;;4.03;;
70342;SDS011;57767;42.068;24.752;2023-10-08T02:12:55;9.15;;;3.58;;
70342;SDS011;57767;42.068;24.752;2023-10-08T02:13:56;8.60;;;3.90;;
70342;SDS011;57767;42.068;24.752;2023-10-08T02:14:58;5.75;;;3.90;;
70342;SDS011;57767;42.068;24.752;2023-10-08T02:16:00;6.25;;;4.03;;
70342;SDS011;57767;42.068;24.752;2023-10-08T02:17:03;6.22;;;3.47;;
70342;SDS011;57767;42.068;24.752;2023-10-08T02:18:07;4.07;;;3.00;;
70342;SDS011;57767;42.068;24.752;2023-10-08T02:19:10;4.97;;;3.40;;
70342;SDS011;57767;42.068;24.752;2023-10-08T02:20:12;7.45;;;3.88;;
70342;SDS011;57767;42.068;24.752;2023-10-08T02:21:16;6.97;;;3.70;;
70342;SDS011;57767;42.068;24.752;2023-10-08T02:22:18;6.07;;;3.58;;
70342;SDS011;57767;42.068;24.752;2023-10-08T02:23:20;5.72;;;3.45;;
70342;SDS011;57767;42.068;24.752;2023-10-08T02:24:23;6.72;;;3.65;;
70342;SDS011;57767;42.068;24.752;2023-10-08T02:25:25;6.95;;;3.88;;
70342;SDS011;57767;42.068;24.752;2023-10-08T02:26:27;8.30;;;3.78;;
70342;SDS011;57767;42.068;24.752;2023-10-08T02:27:29;6.75;;;3.60;;
70342;SDS011;57767;42.068;24.752;2023-10-08T02:28:34;5.10;;;3.28;;
70342;SDS011;57767;42.068;24.752;2023-10-08T02:29:36;8.60;;;4.20;;
70342;SDS011;57767;42.068;24.752;2023-10-08T02:30:37;8.05;;;3.78;;
70342;SDS011;57767;42.068;24.752;2023-10-08T02:31:40;6.68;;;4.03;;
70342;SDS011;57767;42.068;24.752;2023-10-08T02:32:42;6.20;;;3.72;;
70342;SDS011;57767;42.068;24.752;2023-10-08T02:33:44;8.27;;;3.95;;
70342;SDS011;57767;42.068;24.752;2023-10-08T02:34:46;7.47;;;3.35;;
70342;SDS011;57767;42.068;24.752;2023-10-08T02:35:48;6.43;;;3.35;;
70342;SDS011;57767;42.068;24.752;2023-10-08T02:36:51;5.90;;;3.15;;
70342;SDS011;57767;42.068;24.752;2023-10-08T02:37:53;6.18;;;3.30;;
70342;SDS011;57767;42.068;24.752;2023-10-08T02:38:56;6.25;;;3.33;;
70342;SDS011;57767;42.068;24.752;2023-10-08T02:39:57;6.03;;;3.38;;
70342;SDS011;57767;42.068;24.752;2023-10-08T02:40:59;6.55;;;3.35;;
70342;SDS011;57767;42.068;24.752;2023-10-08T02:42:01;7.28;;;3.53;;
70342;SDS011;57767;42.068;24.752;2023-10-08T02:43:02;7.00;;;3.72;;
70342;SDS011;57767;42.068;24.752;2023-10-08T02:44:08;6.57;;;3.40;;
70342;SDS011;57767;42.068;24.752;2023-10-08T02:45:13;7.40;;;4.00;;
70342;SDS011;57767;42.068;24.752;2023-10-08T02:46:15;4.95;;;3.50;;
70342;SDS011;57767;42.068;24.752;2023-10-08T02:47:16;7.13;;;3.45;;
70342;SDS011;57767;42.068;24.752;2023-10-08T02:48:22;6.25;;;3.30;;
70342;SDS011;57767;42.068;24.752;2023-10-08T02:49:24;8.05;;;3.90;;
70342;SDS011;57767;42.068;24.752;2023-10-08T02:50:26;6.95;;;3.90;;
70342;SDS011;57767;42.068;24.752;2023-10-08T02:51:28;9.18;;;4.03;;
70342;SDS011;57767;42.068;24.752;2023-10-08T02:52:30;8.65;;;4.30;;
70342;SDS011;57767;42.068;24.752;2023-10-08T02:53:32;6.05;;;4.07;;
70342;SDS011;57767;42.068;24.752;2023-10-08T02:54:34;8.07;;;4.18;;
70342;SDS011;57767;42.068;24.752;2023-10-08T02:55:39;6.07;;;4.07;;
70342;SDS011;57767;42.068;24.752;2023-10-08T02:56:49;8.43;;;4.05;;
70342;SDS011;57767;42.068;24.752;2023-10-08T02:57:59;10.23;;;4.55;;
70342;SDS011;57767;42.068;24.752;2023-10-08T02:59:00;9.13;;;3.72;;
70342;SDS011;57767;42.068;24.752;2023-10-08T03:00:03;8.02;;;3.88;;
70342;SDS011;57767;42.068;24.752;2023-10-08T03:01:05;6.15;;;3.45;;
70342;SDS011;57767;42.068;24.752;2023-10-08T03:02:07;6.03;;;3.75;;
70342;SDS011;57767;42.068;24.752;2023-10-08T03:03:21;8.60;;;4.13;;
70342;SDS011;57767;42.068;24.752;2023-10-08T03:04:26;6.22;;;3.40;;
70342;SDS011;57767;42.068;24.752;2023-10-08T03:05:29;7.55;;;3.45;;
70342;SDS011;57767;42.068;24.752;2023-10-08T03:06:37;6.47;;;3.53;;
70342;SDS011;57767;42.068;24.752;2023-10-08T03:07:39;5.70;;;3.60;;
70342;SDS011;57767;42.068;24.752;2023-10-08T03:08:41;5.57;;;3.20;;
70342;SDS011;57767;42.068;24.752;2023-10-08T03:09:43;4.57;;;3.03;;
70342;SDS011;57767;42.068;24.752;2023-10-08T03:10:45;8.80;;;3.33;;
70342;SDS011;57767;42.068;24.752;2023-10-08T03:11:47;8.02;;;2.75;;
70342;SDS011;57767;42.068;24.752;2023-10-08T03:12:50;5.47;;;2.63;;
70342;SDS011;57767;42.068;24.752;2023-10-08T03:13:51;5.60;;;2.90;;
70342;SDS011;57767;42.068;24.752;2023-10-08T03:14:54;12.40;;;3.15;;
70342;SDS011;57767;42.068;24.752;2023-10-08T03:16:15;5.45;;;2.92;;
70342;SDS011;57767;42.068;24.752;2023-10-08T03:17:22;5.22;;;2.88;;
70342;SDS011;57767;42.068;24.752;2023-10-08T03:18:24;6.50;;;2.90;;
70342;SDS011;57767;42.068;24.752;2023-10-08T03:19:26;6.90;;;3.00;;
70342;SDS011;57767;42.068;24.752;2023-10-08T03:20:28;7.70;;;3.38;;
70342;SDS011;57767;42.068;24.752;2023-10-08T03:21:40;6.38;;;2.78;;
70342;SDS011;57767;42.068;24.752;2023-10-08T03:22:42;4.38;;;2.92;;
70342;SDS011;57767;42.068;24.752;2023-10-08T03:23:47;5.32;;;2.95;;
70342;SDS011;57767;42.068;24.752;2023-10-08T03:24:49;7.57;;;3.00;;
70342;SDS011;57767;42.068;24.752;2023-10-08T03:25:55;6.18;;;2.85;;
70342;SDS011;57767;42.068;24.752;2023-10-08T03:27:02;4.22;;;2.78;;
70342;SDS011;57767;42.068;24.752;2023-10-08T03:28:08;8.35;;;3.22;;
70342;SDS011;57767;42.068;24.752;2023-10-08T03:29:10;5.57;;;2.60;;
70342;SDS011;57767;42.068;24.752;2023-10-08T03:30:19;5.35;;;3.00;;
70342;SDS011;57767;42.068;24.752;2023-10-08T03:31:21;5.57;;;2.97;;
70342;SDS011;57767;42.068;24.752;2023-10-08T03:32:32;7.05;;;2.83;;
70342;SDS011;57767;42.068;24.752;2023-10-08T03:33:36;11.75;;;3.88;;
70342;SDS011;57767;42.068;24.752;2023-10-08T03:34:47;3.97;;;2.63;;
70342;SDS011;57767;42.068;24.752;2023-10-08T03:35:50;8.95;;;2.97;;
70342;SDS011;57767;42.068;24.752;2023-10-08T03:36:57;4.07;;;2.53;;
70342;SDS011;57767;42.068;24.752;2023-10-08T03:38:07;7.83;;;2.70;;
70342;SDS011;57767;42.068;24.752;2023-10-08T03:39:29;8.65;;;2.67;;
70342;SDS011;57767;42.068;24.752;2023-10-08T03:40:50;7.82;;;2.70;;
70342;SDS011;57767;42.068;24.752;2023-10-08T03:41:58;6.78;;;2.80;;
70342;SDS011;57767;42.068;24.752;2023-10-08T03:43:07;8.90;;;3.30;;
70342;SDS011;57767;42.068;24.752;2023-10-08T03:44:20;7.07;;;2.80;;
70342;SDS011;57767;42.068;24.752;2023-10-08T03:45:22;6.00;;;2.90;;
70342;SDS011;57767;42.068;24.752;2023-10-08T03:46:43;8.57;;;3.08;;
70342;SDS011;57767;42.068;24.752;2023-10-08T03:47:45;5.00;;;2.92;;
70342;SDS011;57767;42.068;24.752;2023-10-08T03:48:48;6.18;;;2.75;;
70342;SDS011;57767;42.068;24.752;2023-10-08T03:49:52;4.82;;;2.85;;
70342;SDS011;57767;42.068;24.752;2023-10-08T03:50:55;4.88;;;2.42;;
70342;SDS011;57767;42.068;24.752;2023-10-08T03:52:07;4.20;;;2.47;;
70342;SDS011;57767;42.068;24.752;2023-10-08T03:53:09;4.88;;;2.60;;
70342;SDS011;57767;42.068;24.752;2023-10-08T03:54:14;6.38;;;2.72;;
70342;SDS011;57767;42.068;24.752;2023-10-08T03:55:16;7.20;;;3.13;;
70342;SDS011;57767;42.068;24.752;2023-10-08T03:56:20;5.63;;;2.70;;
70342;SDS011;57767;42.068;24.752;2023-10-08T03:57:22;3.70;;;2.58;;
70342;SDS011;57767;42.068;24.752;2023-10-08T03:58:30;5.63;;;2.58;;
70342;SDS011;57767;42.068;24.752;2023-10-08T03:59:35;5.28;;;2.38;;
70342;SDS011;57767;42.068;24.752;2023-10-08T04:00:42;4.15;;;2.78;;
70342;SDS011;57767;42.068;24.752;2023-10-08T04:01:47;7.30;;;2.58;;
70342;SDS011;57767;42.068;24.752;2023-10-08T04:02:50;6.88;;;3.13;;
70342;SDS011;57767;42.068;24.752;2023-10-08T04:04:13;8.02;;;2.85;;
70342;SDS011;57767;42.068;24.752;2023-10-08T04:05:15;8.30;;;3.00;;
70342;SDS011;57767;42.068;24.752;2023-10-08T04:06:21;7.53;;;2.65;;
70342;SDS011;57767;42.068;24.752;2023-10-08T04:07:35;6.70;;;2.72;;
70342;SDS011;57767;42.068;24.752;2023-10-08T04:09:02;4.70;;;3.03;;
70342;SDS011;57767;42.068;24.752;2023-10-08T04:10:10;6.82;;;2.95;;
70342;SDS011;57767;42.068;24.752;2023-10-08T04:11:12;5.35;;;3.05;;
70342;SDS011;57767;42.068;24.752;2023-10-08T04:12:33;11.02;;;2.80;;
70342;SDS011;57767;42.068;24.752;2023-10-08T04:13:45;4.80;;;2.45;;
70342;SDS011;57767;42.068;24.752;2023-10-08T04:14:49;6.03;;;2.50;;
70342;SDS011;57767;42.068;24.752;2023-10-08T04:15:51;5.03;;;2.60;;
70342;SDS011;57767;42.068;24.752;2023-10-08T04:16:53;10.40;;;3.00;;
70342;SDS011;57767;42.068;24.752;2023-10-08T04:17:54;9.50;;;2.60;;
70342;SDS011;57767;42.068;24.752;2023-10-08T04:18:58;7.15;;;2.78;;
70342;SDS011;57767;42.068;24.752;2023-10-08T04:20:07;11.48;;;2.60;;
70342;SDS011;57767;42.068;24.752;2023-10-08T04:21:29;8.50;;;2.80;;
70342;SDS011;57767;42.068;24.752;2023-10-08T04:22:31;6.57;;;2.70;;
70342;SDS011;57767;42.068;24.752;2023-10-08T04:23:33;11.63;;;2.80;;
70342;SDS011;57767;42.068;24.752;2023-10-08T04:24:38;8.13;;;2.80;;
70342;SDS011;57767;42.068;24.752;2023-10-08T04:25:45;9.07;;;3.08;;
70342;SDS011;57767;42.068;24.752;2023-10-08T04:26:48;8.45;;;3.03;;
70342;SDS011;57767;42.068;24.752;2023-10-08T04:27:51;5.03;;;2.75;;
70342;SDS011;57767;42.068;24.752;2023-10-08T04:28:53;9.82;;;2.50;;
70342;SDS011;57767;42.068;24.752;2023-10-08T04:29:58;11.40;;;2.53;;
70342;SDS011;57767;42.068;24.752;2023-10-08T04:31:01;3.70;;;2.38;;
70342;SDS011;57767;42.068;24.752;2023-10-08T04:32:16;14.38;;;2.50;;
70342;SDS011;57767;42.068;24.752;2023-10-08T04:33:27;16.52;;;3.05;;
70342;SDS011;57767;42.068;24.752;2023-10-08T04:34:31;3.95;;;2.70;;
70342;SDS011;57767;42.068;24.752;2023-10-08T04:35:34;5.10;;;2.35;;
70342;SDS011;57767;42.068;24.752;2023-10-08T04:36:50;3.53;;;2.03;;
70342;SDS011;57767;42.068;24.752;2023-10-08T04:37:55;6.60;;;2.40;;
70342;SDS011;57767;42.068;24.752;2023-10-08T04:38:57;4.57;;;2.25;;
70342;SDS011;57767;42.068;24.752;2023-10-08T04:40:05;6.95;;;2.53;;
70342;SDS011;57767;42.068;24.752;2023-10-08T04:41:08;8.45;;;2.75;;
70342;SDS011;57767;42.068;24.752;2023-10-08T04:42:10;6.68;;;2.63;;
70342;SDS011;57767;42.068;24.752;2023-10-08T04:43:15;5.22;;;2.40;;
70342;SDS011;57767;42.068;24.752;2023-10-08T04:44:24;3.97;;;2.45;;
70342;SDS011;57767;42.068;24.752;2023-10-08T04:45:27;7.07;;;2.30;;
70342;SDS011;57767;42.068;24.752;2023-10-08T04:46:35;4.03;;;2.20;;
70342;SDS011;57767;42.068;24.752;2023-10-08T04:47:40;4.60;;;2.67;;
70342;SDS011;57767;42.068;24.752;2023-10-08T04:48:43;7.00;;;2.28;;
70342;SDS011;57767;42.068;24.752;2023-10-08T04:49:45;7.97;;;2.70;;
70342;SDS011;57767;42.068;24.752;2023-10-08T04:50:50;4.35;;;2.50;;
70342;SDS011;57767;42.068;24.752;2023-10-08T04:52:06;4.55;;;2.25;;
70342;SDS011;57767;42.068;24.752;2023-10-08T04:53:20;5.22;;;2.85;;
70342;SDS011;57767;42.068;24.752;2023-10-08T04:54:29;8.70;;;2.85;;
70342;SDS011;57767;42.068;24.752;2023-10-08T04:55:31;6.35;;;2.50;;
70342;SDS011;57767;42.068;24.752;2023-10-08T04:56:33;5.68;;;2.58;;
70342;SDS011;57767;42.068;24.752;2023-10-08T04:57:34;6.22;;;2.40;;
70342;SDS011;57767;42.068;24.752;2023-10-08T04:58:36;5.45;;;2.45;;
70342;SDS011;57767;42.068;24.752;2023-10-08T04:59:38;12.57;;;2.85;;
70342;SDS011;57767;42.068;24.752;2023-10-08T05:00:40;8.48;;;2.75;;
70342;SDS011;57767;42.068;24.752;2023-10-08T05:01:42;6.40;;;2.67;;
70342;SDS011;57767;42.068;24.752;2023-10-08T05:03:03;4.95;;;2.55;;
70342;SDS011;57767;42.068;24.752;2023-10-08T05:04:12;4.80;;;2.83;;
70342;SDS011;57767;42.068;24.752;2023-10-08T05:05:32;5.07;;;2.70;;
70342;SDS011;57767;42.068;24.752;2023-10-08T05:06:53;6.72;;;2.47;;
70342;SDS011;57767;42.068;24.752;2023-10-08T05:08:14;8.00;;;2.40;;
70342;SDS011;57767;42.068;24.752;2023-10-08T05:09:28;11.23;;;2.60;;
70342;SDS011;57767;42.068;24.752;2023-10-08T05:11:02;4.70;;;2.90;;
70342;SDS011;57767;42.068;24.752;2023-10-08T05:12:16;6.97;;;2.75;;
70342;SDS011;57767;42.068;24.752;2023-10-08T05:13:33;7.28;;;3.13;;
70342;SDS011;57767;42.068;24.752;2023-10-08T05:14:48;6.05;;;3.10;;
70342;SDS011;57767;42.068;24.752;2023-10-08T05:16:09;5.93;;;3.17;;
70342;SDS011;57767;42.068;24.752;2023-10-08T05:17:31;5.70;;;2.53;;
70342;SDS011;57767;42.068;24.752;2023-10-08T05:18:47;4.53;;;2.80;;
70342;SDS011;57767;42.068;24.752;2023-10-08T05:20:07;4.20;;;2.63;;
70342;SDS011;57767;42.068;24.752;2023-10-08T05:21:09;5.50;;;2.60;;
70342;SDS011;57767;42.068;24.752;2023-10-08T05:22:27;4.43;;;2.03;;
70342;SDS011;57767;42.068;24.752;2023-10-08T05:23:28;4.13;;;2.65;;
70342;SDS011;57767;42.068;24.752;2023-10-08T05:24:31;4.53;;;2.92;;
70342;SDS011;57767;42.068;24.752;2023-10-08T05:25:42;4.40;;;2.17;;
70342;SDS011;57767;42.068;24.752;2023-10-08T05:27:04;5.18;;;2.85;;
70342;SDS011;57767;42.068;24.752;2023-10-08T05:28:39;4.05;;;2.38;;
70342;SDS011;57767;42.068;24.752;2023-10-08T05:30:01;4.57;;;2.90;;
70342;SDS011;57767;42.068;24.752;2023-10-08T05:31:18;4.13;;;2.50;;
70342;SDS011;57767;42.068;24.752;2023-10-08T05:32:38;4.95;;;2.67;;
70342;SDS011;57767;42.068;24.752;2023-10-08T05:33:45;6.43;;;2.42;;
70342;SDS011;57767;42.068;24.752;2023-10-08T05:35:06;4.97;;;2.50;;
70342;SDS011;57767;42.068;24.752;2023-10-08T05:36:26;5.43;;;2.55;;
70342;SDS011;57767;42.068;24.752;2023-10-08T05:37:46;6.28;;;2.50;;
70342;SDS011;57767;42.068;24.752;2023-10-08T05:38:53;10.52;;;3.03;;
70342;SDS011;57767;42.068;24.752;2023-10-08T05:40:14;4.93;;;2.28;;
70342;SDS011;57767;42.068;24.752;2023-10-08T05:41:44;5.15;;;2.53;;
70342;SDS011;57767;42.068;24.752;2023-10-08T05:43:14;5.82;;;2.75;;
70342;SDS011;57767;42.068;24.752;2023-10-08T05:44:35;4.75;;;2.67;;
70342;SDS011;57767;42.068;24.752;2023-10-08T05:45:47;5.72;;;2.60;;
70342;SDS011;57767;42.068;24.752;2023-10-08T05:47:09;7.38;;;2.38;;
70342;SDS011;57767;42.068;24.752;2023-10-08T05:48:29;4.70;;;2.28;;
70342;SDS011;57767;42.068;24.752;2023-10-08T05:49:33;4.93;;;2.65;;
70342;SDS011;57767;42.068;24.752;2023-10-08T05:50:35;8.15;;;2.70;;
70342;SDS011;57767;42.068;24.752;2023-10-08T05:51:57;6.40;;;2.33;;
70342;SDS011;57767;42.068;24.752;2023-10-08T05:53:04;5.20;;;2.60;;
70342;SDS011;57767;42.068;24.752;2023-10-08T05:54:24;6.70;;;2.60;;
70342;SDS011;57767;42.068;24.752;2023-10-08T05:55:32;7.93;;;2.70;;
70342;SDS011;57767;42.068;24.752;2023-10-08T05:56:44;13.23;;;2.78;;
70342;SDS011;57767;42.068;24.752;2023-10-08T05:58:06;10.95;;;2.75;;
70342;SDS011;57767;42.068;24.752;2023-10-08T05:59:37;5.22;;;2.63;;
70342;SDS011;57767;42.068;24.752;2023-10-08T06:00:41;6.78;;;3.00;;
70342;SDS011;57767;42.068;24.752;2023-10-08T06:01:52;7.25;;;2.90;;
70342;SDS011;57767;42.068;24.752;2023-10-08T06:03:07;7.30;;;2.60;;
70342;SDS011;57767;42.068;24.752;2023-10-08T06:04:12;7.57;;;2.95;;
70342;SDS011;57767;42.068;24.752;2023-10-08T06:05:32;7.15;;;2.50;;
70342;SDS011;57767;42.068;24.752;2023-10-08T06:06:44;9.05;;;3.28;;
70342;SDS011;57767;42.068;24.752;2023-10-08T06:07:59;6.57;;;2.65;;
70342;SDS011;57767;42.068;24.752;2023-10-08T06:09:13;4.68;;;2.50;;
70342;SDS011;57767;42.068;24.752;2023-10-08T06:10:15;10.10;;;2.97;;
70342;SDS011;57767;42.068;24.752;2023-10-08T06:11:34;6.28;;;2.60;;
70342;SDS011;57767;42.068;24.752;2023-10-08T06:12:45;10.50;;;2.92;;
70342;SDS011;57767;42.068;24.752;2023-10-08T06:13:51;11.20;;;3.20;;
70342;SDS011;57767;42.068;24.752;2023-10-08T06:15:01;8.25;;;2.28;;
70342;SDS011;57767;42.068;24.752;2023-10-08T06:16:09;5.63;;;2.70;;
70342;SDS011;57767;42.068;24.752;2023-10-08T06:17:15;6.38;;;2.50;;
70342;SDS011;57767;42.068;24.752;2023-10-08T06:18:35;4.82;;;3.20;;
70342;SDS011;57767;42.068;24.752;2023-10-08T06:19:41;3.63;;;2.58;;
70342;SDS011;57767;42.068;24.752;2023-10-08T06:20:45;7.50;;;2.83;;
70342;SDS011;57767;42.068;24.752;2023-10-08T06:21:48;12.88;;;3.30;;
70342;SDS011;57767;42.068;24.752;2023-10-08T06:22:49;6.30;;;3.05;;
70342;SDS011;57767;42.068;24.752;2023-10-08T06:23:52;9.93;;;2.95;;
70342;SDS011;57767;42.068;24.752;2023-10-08T06:24:57;5.20;;;2.85;;
70342;SDS011;57767;42.068;24.752;2023-10-08T06:26:18;5.78;;;2.75;;
70342;SDS011;57767;42.068;24.752;2023-10-08T06:27:22;4.43;;;2.30;;
70342;SDS011;57767;42.068;24.752;2023-10-08T06:28:26;6.18;;;2.70;;
70342;SDS011;57767;42.068;24.752;2023-10-08T06:29:28;9.85;;;2.90;;
70342;SDS011;57767;42.068;24.752;2023-10-08T06:30:31;8.88;;;2.90;;
70342;SDS011;57767;42.068;24.752;2023-10-08T06:31:36;7.47;;;2.65;;
70342;SDS011;57767;42.068;24.752;2023-10-08T06:32:39;5.68;;;2.53;;
70342;SDS011;57767;42.068;24.752;2023-10-08T06:33:41;7.78;;;2.67;;
70342;SDS011;57767;42.068;24.752;2023-10-08T06:34:43;7.47;;;2.65;;
70342;SDS011;57767;42.068;24.752;2023-10-08T06:35:45;5.00;;;2.47;;
70342;SDS011;57767;42.068;24.752;2023-10-08T06:36:58;6.93;;;2.67;;
70342;SDS011;57767;42.068;24.752;2023-10-08T06:38:03;9.65;;;2.65;;